createdAt,value
2023-02-13T00:02:48.529Z,88.57
2023-02-13T00:07:50.096Z,88.15
2023-02-13T00:12:51.577Z,87.63
2023-02-13T00:17:53.020Z,87.68
2023-02-13T00:22:54.456Z,87.50
2023-02-13T00:27:55.925Z,87.01
2023-02-13T00:32:57.462Z,86.79
2023-02-13T00:37:58.862Z,86.46
2023-02-13T00:43:00.320Z,86.05
2023-02-13T00:48:01.824Z,85.12
2023-02-13T00:53:03.240Z,85.33
2023-02-13T00:58:04.933Z,84.37
2023-02-13T01:03:06.868Z,84.40
2023-02-13T01:08:08.712Z,84.08
2023-02-13T01:13:11.176Z,84.42
2023-02-13T01:18:15.208Z,84.36
2023-02-13T01:23:16.615Z,84.40
2023-02-13T01:28:18.186Z,83.94
2023-02-13T01:33:19.877Z,83.72
2023-02-13T01:38:21.857Z,83.60
2023-02-13T01:43:24.546Z,83.19
2023-02-13T01:48:27.543Z,83.07
2023-02-13T01:53:35.725Z,82.71
2023-02-13T01:58:41.177Z,83.11
2023-02-13T02:03:49.621Z,83.24
2023-02-13T02:08:53.116Z,83.21
2023-02-13T02:13:56.043Z,83.38
2023-02-13T02:18:57.492Z,83.05
2023-02-13T02:24:34.186Z,82.34
2023-02-13T02:29:51.322Z,82.65
2023-02-13T02:35:06.449Z,82.82
2023-02-13T02:40:28.145Z,82.70
2023-02-13T02:45:52.869Z,82.42
2023-02-13T02:51:03.212Z,82.76
2023-02-13T02:56:14.597Z,83.02
2023-02-13T03:01:39.681Z,82.91
2023-02-13T03:06:49.530Z,83.03
2023-02-13T03:12:13.292Z,83.53
2023-02-13T03:17:35.681Z,83.54
2023-02-13T03:22:59.878Z,83.47
2023-02-13T03:28:41.098Z,83.67
2023-02-13T03:34:03.878Z,83.79
2023-02-13T03:39:29.594Z,83.59
2023-02-13T03:44:46.140Z,83.86
2023-02-13T03:50:09.096Z,84.20
2023-02-13T03:55:36.367Z,84.65
2023-02-13T04:00:46.080Z,84.83
2023-02-13T04:05:52.186Z,85.36
2023-02-13T04:11:00.302Z,85.43
2023-02-13T04:16:18.424Z,85.81
2023-02-13T04:21:20.006Z,85.94
2023-02-13T04:26:23.514Z,86.99
2023-02-13T04:31:25.085Z,87.20
2023-02-13T04:36:26.868Z,87.52
2023-02-13T04:41:28.267Z,88.44
2023-02-13T04:46:29.788Z,88.73
2023-02-13T04:51:31.197Z,89.09
2023-02-13T04:56:33.691Z,89.85
2023-02-13T05:01:35.144Z,90.15
2023-02-13T05:06:38.090Z,90.33
2023-02-13T05:11:39.571Z,90.34
2023-02-13T05:16:41.018Z,90.46
2023-02-13T05:22:01.428Z,91.41
2023-02-13T05:27:02.866Z,91.67
2023-02-13T05:32:04.562Z,91.33
2023-02-13T05:37:06.005Z,92.61
2023-02-13T05:42:07.484Z,92.34
2023-02-13T05:47:08.894Z,92.42
2023-02-13T05:52:10.425Z,92.51
2023-02-13T05:57:11.848Z,92.83
2023-02-13T06:02:13.295Z,92.97
2023-02-13T06:07:14.707Z,93.03
2023-02-13T06:12:16.219Z,92.53
2023-02-13T06:17:17.644Z,92.85
2023-02-13T06:22:19.085Z,93.07
2023-02-13T06:27:20.539Z,93.35
2023-02-13T06:32:21.966Z,93.50
2023-02-13T06:37:23.374Z,93.86
2023-02-13T06:42:24.885Z,93.85
2023-02-13T06:47:26.466Z,93.41
2023-02-13T06:52:28.028Z,93.51
2023-02-13T06:57:33.003Z,93.34
2023-02-13T07:02:34.631Z,92.65
2023-02-13T07:07:37.527Z,92.80
2023-02-13T07:12:39.555Z,92.99
2023-02-13T07:17:40.988Z,93.46
2023-02-13T07:22:42.435Z,93.45
2023-02-13T07:27:43.874Z,92.88
2023-02-13T07:32:45.342Z,92.64
2023-02-13T07:37:46.806Z,92.46
2023-02-13T07:42:48.419Z,92.24
2023-02-13T07:47:49.847Z,92.73
2023-02-13T07:53:02.487Z,92.32
2023-02-13T07:58:03.956Z,92.02
2023-02-13T08:03:05.410Z,91.73
2023-02-13T08:08:07.017Z,92.46
2023-02-13T08:13:09.655Z,92.68
2023-02-13T08:18:11.259Z,91.67
2023-02-13T08:23:12.882Z,92.06
2023-02-13T08:28:14.444Z,92.48
2023-02-13T08:33:15.889Z,92.80
2023-02-13T08:38:17.316Z,94.63
2023-02-13T08:43:18.709Z,93.76
2023-02-13T08:48:20.128Z,94.55
2023-02-13T08:53:22.170Z,94.67
2023-02-13T08:58:24.390Z,95.01
2023-02-13T09:03:25.889Z,95.54
2023-02-13T09:08:27.420Z,96.14
2023-02-13T09:13:30.624Z,94.68
2023-02-13T09:18:32.455Z,95.42
2023-02-13T09:23:36.503Z,97.36
2023-02-13T09:28:38.676Z,99.56
2023-02-13T09:33:40.533Z,95.88
2023-02-13T09:38:44.099Z,93.99
2023-02-13T09:43:50.903Z,92.45
2023-02-13T09:48:56.296Z,90.33
2023-02-13T09:54:03.635Z,90.67
2023-02-13T09:59:42.575Z,88.81
2023-02-13T10:04:56.547Z,88.33
2023-02-13T10:10:20.810Z,86.36
2023-02-13T10:15:48.576Z,86.77
2023-02-13T10:20:57.379Z,87.55
2023-02-13T10:26:17.139Z,83.95
2023-02-13T10:31:23.775Z,83.54
2023-02-13T10:36:33.901Z,83.87
2023-02-13T10:42:07.855Z,82.75
2023-02-13T10:47:31.710Z,81.25
2023-02-13T10:53:11.173Z,79.30
2023-02-13T10:58:18.402Z,80.39
2023-02-13T11:03:27.060Z,77.98
2023-02-13T11:08:44.403Z,78.44
2023-02-13T11:13:45.850Z,78.93
2023-02-13T11:18:50.622Z,80.15
2023-02-13T11:23:54.544Z,78.73
2023-02-13T11:29:15.891Z,79.24
2023-02-13T11:34:27.264Z,78.16
2023-02-13T11:39:28.719Z,79.13
2023-02-13T11:44:32.387Z,77.68
2023-02-13T11:49:36.778Z,77.76
2023-02-13T11:54:45.546Z,76.60
2023-02-13T11:59:50.151Z,76.87
2023-02-13T12:04:54.889Z,73.29
2023-02-13T12:10:17.411Z,75.28
2023-02-13T12:15:22.920Z,74.80
2023-02-13T12:20:29.031Z,74.76
2023-02-13T12:26:12.077Z,74.89
2023-02-13T12:31:39.432Z,74.06
2023-02-13T12:37:20.240Z,74.38
2023-02-13T12:42:36.624Z,74.42
2023-02-13T12:47:54.095Z,74.68
2023-02-13T12:53:28.376Z,74.83
2023-02-13T12:58:40.719Z,73.62
2023-02-13T13:04:05.348Z,72.60
2023-02-13T13:09:57.698Z,71.73
2023-02-13T13:15:01.875Z,70.15
2023-02-13T13:20:15.548Z,69.40
2023-02-13T13:25:22.972Z,69.91
2023-02-13T13:30:30.257Z,69.69
2023-02-13T13:35:34.580Z,67.67
2023-02-13T13:40:45.441Z,67.92
2023-02-13T13:46:12.224Z,68.38
2023-02-13T13:51:19.606Z,68.09
2023-02-13T13:56:21.027Z,67.50
2023-02-13T14:01:29.770Z,67.95
2023-02-13T14:06:46.491Z,68.16
2023-02-13T14:11:49.242Z,68.85
2023-02-13T14:16:50.881Z,69.33
2023-02-13T14:21:53.637Z,69.14
2023-02-13T14:27:05.324Z,70.57
2023-02-13T14:32:16.499Z,70.27
2023-02-13T14:37:27.270Z,70.02
2023-02-13T14:42:30.390Z,70.07
2023-02-13T14:47:37.090Z,71.33
2023-02-13T14:52:43.143Z,71.24
2023-02-13T14:57:49.208Z,71.83
2023-02-13T15:02:59.500Z,71.43
2023-02-13T15:08:18.121Z,71.50
2023-02-13T15:13:34.750Z,71.49
2023-02-13T15:18:47.864Z,70.97
2023-02-13T15:23:57.416Z,71.26
2023-02-13T15:29:01.931Z,71.87
2023-02-13T15:34:03.516Z,71.85
2023-02-13T15:39:09.812Z,72.13
2023-02-13T15:44:19.909Z,72.81
2023-02-13T15:49:24.748Z,73.29
2023-02-13T15:54:31.677Z,72.57
2023-02-13T15:59:39.080Z,73.34
2023-02-13T16:04:42.435Z,73.50
2023-02-13T16:09:44.031Z,73.84
2023-02-13T16:14:51.964Z,74.22
2023-02-13T16:20:11.581Z,75.56
2023-02-13T16:25:13.633Z,77.01
2023-02-13T16:30:27.310Z,77.34
2023-02-13T16:35:31.168Z,78.71
2023-02-13T16:40:35.328Z,78.65
2023-02-13T16:45:37.184Z,79.40
2023-02-13T16:50:38.649Z,79.87
2023-02-13T16:55:40.237Z,79.88
2023-02-13T17:00:41.713Z,79.94
2023-02-13T17:05:43.176Z,80.40
2023-02-13T17:11:02.377Z,80.52
2023-02-13T17:16:03.973Z,80.75
2023-02-13T17:21:05.928Z,80.97
2023-02-13T17:26:07.361Z,80.85
2023-02-13T17:31:12.166Z,81.57
2023-02-13T17:36:14.495Z,82.14
2023-02-13T17:41:16.140Z,82.85
2023-02-13T17:46:17.736Z,82.94
2023-02-13T17:51:19.215Z,83.00
2023-02-13T17:56:20.659Z,82.38
2023-02-13T18:01:22.111Z,82.00
2023-02-13T18:06:23.603Z,82.69
2023-02-13T18:11:25.009Z,82.48
2023-02-13T18:16:26.450Z,83.65
2023-02-13T18:21:28.098Z,83.33
2023-02-13T18:26:29.526Z,83.34
2023-02-13T18:31:31.154Z,83.22
2023-02-13T18:36:32.590Z,83.20
2023-02-13T18:41:34.022Z,83.55
2023-02-13T18:46:35.860Z,81.98
2023-02-13T18:51:37.327Z,83.02
2023-02-13T18:56:38.840Z,82.15
2023-02-13T19:01:40.774Z,80.98
2023-02-13T19:06:43.668Z,81.68
2023-02-13T19:11:45.601Z,81.40
2023-02-13T19:16:47.037Z,81.18
2023-02-13T19:21:48.629Z,81.63
2023-02-13T19:26:50.107Z,81.30
2023-02-13T19:31:51.549Z,81.46
2023-02-13T19:36:53.074Z,81.61
2023-02-13T19:41:54.541Z,82.66
2023-02-13T19:46:55.973Z,80.81
2023-02-13T19:51:57.412Z,80.90
2023-02-13T19:57:02.519Z,81.49
2023-02-13T20:02:04.064Z,80.98
2023-02-13T20:07:07.600Z,81.34
2023-02-13T20:12:09.031Z,81.23
2023-02-13T20:17:10.447Z,82.66
2023-02-13T20:22:16.436Z,81.45
2023-02-13T20:27:17.855Z,80.29
2023-02-13T20:32:19.327Z,79.75
2023-02-13T20:37:20.785Z,79.21
2023-02-13T20:42:22.234Z,77.70
2023-02-13T20:47:23.654Z,77.39
2023-02-13T20:52:25.113Z,76.94
2023-02-13T20:57:26.910Z,77.63
2023-02-13T21:02:28.356Z,77.92
2023-02-13T21:07:31.653Z,76.40
2023-02-13T21:12:33.268Z,77.06
2023-02-13T21:17:34.671Z,77.53
2023-02-13T21:22:36.152Z,76.82
2023-02-13T21:27:37.610Z,77.67
2023-02-13T21:32:39.501Z,77.82
2023-02-13T21:37:41.016Z,78.17
2023-02-13T21:42:42.968Z,78.58
2023-02-13T21:47:46.962Z,78.03
2023-02-13T21:52:48.818Z,77.56
2023-02-13T21:57:50.265Z,77.28
2023-02-13T22:02:51.779Z,76.31
2023-02-13T22:08:22.447Z,75.97
2023-02-13T22:13:25.101Z,75.88
2023-02-13T22:18:26.639Z,75.27
2023-02-13T22:23:28.094Z,74.60
2023-02-13T22:28:29.919Z,74.78
2023-02-13T22:33:34.013Z,75.22
2023-02-13T22:38:37.498Z,75.92
2023-02-13T22:43:39.734Z,75.28
2023-02-13T22:48:44.324Z,74.88
2023-02-13T22:53:46.340Z,74.23
2023-02-13T22:58:47.812Z,74.51
2023-02-13T23:03:49.661Z,74.54
2023-02-13T23:08:55.200Z,74.04
2023-02-13T23:13:58.132Z,74.03
2023-02-13T23:18:59.574Z,73.28
2023-02-13T23:24:01.017Z,74.03
2023-02-13T23:29:02.493Z,74.05
2023-02-13T23:34:04.022Z,74.17
2023-02-13T23:39:05.500Z,74.74
2023-02-13T23:44:07.014Z,75.11
2023-02-13T23:49:08.484Z,74.98
2023-02-13T23:54:14.304Z,74.66
2023-02-13T23:59:16.724Z,74.92
